Paradise Valley, Nevada Weather observations

Data are for 10 minute period ending at time listed.
 Day   Time   Solar   Ave.   Ave.  Ave.  Vector  Max.   Baro.   Total    
  of    of     Rad.   Air    Rel.  Wind   Wind   Wind  Press.  Precip.   
Year   Day            Temp.  Hum.  Speed  Dir.   Gust                    
2015   (PST)  Kw/m2    F      %     mph   deg.    mph    mb.     in.     
-------------------------------------------------------------------------
 246    1:50   0.00   65.0    29    9.1   256    13.3   861.1    0.00 
 246    2:00   0.00   64.8    29    8.1   249    10.6   861.1    0.00 
 246    2:10   0.00   64.3    30    6.7   252    10.6   861.1    0.00 
 246    2:20   0.00   64.2    30    8.8   252    13.4   861.1    0.00 
 246    2:30   0.00   64.4    30   11.3   252    15.3   861.1    0.00 
 246    2:40   0.00   63.7    31    9.4   261    13.5   861.1    0.00 
 246    2:50   0.00   62.8    32    7.7   260    10.0   861.1    0.00 
 246    3:00   0.00   61.8    34    7.2   258     9.6   861.1    0.00 
 246    3:10   0.00   60.9    35    7.3   259     9.3   861.0    0.00 
 246    3:20   0.00   60.1    37    5.9   256     7.7   860.9    0.00 
 246    3:30   0.00   59.8    37    6.7   248     8.8   860.9    0.00 
 246    3:40   0.00   60.1    36    7.7   239    10.4   860.9    0.00 
 246    3:50   0.00   60.5    34    7.8   235    10.5   860.9    0.00 
 246    4:00   0.00   59.7    35    6.8   233     9.3   860.9    0.00 
 246    4:10   0.00   59.9    34    7.1   229     9.4   861.0    0.00 
 246    4:20   0.00   59.0    38    4.9   215     7.1   861.1    0.00 
 246    4:30   0.00   56.6    42    4.6    98    10.7   861.2    0.00 
 246    4:40   0.00   57.3    38    3.7   178     8.5   861.1    0.00 
 246    4:50   0.00   56.8    38    5.5   174     8.2   861.0    0.00 
 246    5:00   0.00   54.9    44    1.5   255     3.7   861.1    0.00 
 246    5:10   0.00   54.5    44    3.9   248     8.0   861.1    0.00 
 246    5:20   0.00   56.0    41    3.3   196     6.5   861.1    0.00 
 246    5:30   0.01   56.1    41    1.2   187     3.5   861.1    0.00 
 246    5:40   0.02   56.3    40    1.2   224     3.0   861.0    0.00 
 246    5:50   0.04   57.0    40    2.7   250     6.8   861.0    0.00 
 246    6:00   0.04   58.0    39    2.6   218     7.5   861.1    0.00 
 246    6:10   0.04   55.5    45    1.9    85     3.7   861.2    0.00 
 246    6:20   0.03   54.2    45    2.1   208     6.3   861.4    0.00 
 246    6:30   0.04   53.0    50    2.1   258     6.1   861.4    0.00 
 246    6:40   0.19   54.9    50    2.4   252     5.7   861.5    0.00 
 246    6:50   0.23   59.3    41    1.5   261     4.3   861.5    0.00 
 246    7:00   0.28   63.1    35    0.3   270     1.4   861.6    0.00 
 246    7:10   0.31   65.0    32    2.0    63     4.6   861.7    0.00 
 246    7:20   0.33   65.6    30    2.4    56     4.3   861.7    0.00 
 246    7:30   0.36   65.9    30    3.7    38     5.8   861.8    0.00 
 246    7:40   0.40   65.4    32    5.6    41     7.6   862.0    0.00 
 246    7:50   0.42   65.9    34    6.1    43     8.2   862.0    0.00 
 246    8:00   0.47   66.9    33    5.5    32     8.0   862.0    0.00 
 246    8:10   0.42   67.1    31    6.0    41     8.7   862.1    0.00 
 246    8:20   0.57   68.4    30    5.7    51     9.2   862.1    0.00 
 246    8:30   0.61   69.6    27    5.2    36     8.4   862.1    0.00 
 246    8:40   0.67   70.3    25    4.8     9     9.6   862.1    0.00 
 246    8:50   0.72   71.1    25    3.7    50     7.4   862.2    0.00 
 246    9:00   0.77   71.3    24    7.6    23    13.8   862.3    0.00 
 246    9:10   0.78   71.8    22    4.7    14    11.0   862.3    0.00 
 246    9:20   0.34   71.3    22    4.9   258    12.9   862.3    0.00 
 246    9:30   0.40   70.8    22    8.3   237    15.5   862.3    0.00 
 246    9:40   0.76   71.4    22   11.2   244    17.3   862.2    0.00 
 246    9:50   0.77   71.7    22   11.1   239    18.0   862.2    0.00 
 246   10:00   0.79   71.3    22    9.2   220    18.3   862.2    0.00 
 246   10:10   0.81   71.9    22   11.0   254    16.7   862.2    0.00 
 246   10:20   0.83   71.5    22    6.5   238    14.2   862.2    0.00 
 246   10:30   0.86   72.7    22    9.5   206    15.3   862.0    0.00 
 246   10:40   0.91   73.0    22    8.7   232    14.8   861.9    0.00 
 246   10:50   0.91   73.5    22   11.6   237    22.1   861.7    0.00 
 246   11:00   0.88   72.6    22   10.3   231    17.3   861.7    0.00 
 246   11:10   0.89   74.1    22   10.7   245    18.1   861.6    0.00 
 246   11:20   0.90   73.3    22    5.6   267    15.9   861.5    0.00 
 246   11:30   0.91   74.2    21   12.0   260    20.8   861.4    0.00 
 246   11:40   0.91   74.1    21   10.5   251    18.2   861.3    0.00 
 246   11:50   0.91   74.0    20    7.9   249    16.8   861.2    0.00 
 246   12:00   0.91   75.1    20    9.6   254    18.3   861.1    0.00 
 246   12:10   0.92   74.9    20    6.3   256    18.2   860.9    0.00 
 246   12:20   0.90   76.1    19   10.7   257    20.1   860.8    0.00 
 246   12:30   0.91   75.4    19    6.6   195    18.0   860.7    0.00 
 246   12:40   0.92   76.2    19   13.5   254    23.3   860.5    0.00 
 246   12:50   0.90   76.3    18    9.7   284    18.6   860.4    0.00 
 246   13:00   0.92   76.6    18   13.4   252    22.7   860.3    0.00 
 246   13:10   0.61   76.2    18   10.3   276    18.3   860.2    0.00 
 246   13:20   0.83   76.4    18    4.1   202    12.1   860.2    0.00 
 246   13:30   0.93   77.0    18    8.8   279    20.6   860.1    0.00 
 246   13:40   0.85   78.8    17    9.0   263    15.3   860.0    0.00 
 246   13:50   0.27   76.4    18    9.5   272    15.4   860.0    0.00 
 246   14:00   0.23   75.1    19   11.4   246    17.9   859.8    0.00 
 246   14:10   0.40   75.5    18    6.6   263    14.3   859.7    0.00 
 246   14:20   0.56   77.1    18    5.3   273    15.0   859.6    0.00 
 246   14:30   0.27   76.3    18   12.4   253    17.8   859.5    0.00 
 246   14:40   0.22   75.6    19    8.6   252    15.7   859.4    0.00 
 246   14:50   0.20   75.3    19    8.4   219    15.3   859.3    0.00 
 246   15:00   0.15   75.1    20    8.5   275    12.8   859.4    0.00 
 246   15:10   0.30   74.9    20   10.8   323    16.2   859.3    0.00 
 246   15:20   0.26   74.7    20    4.7   257    11.5   859.3    0.00 
 246   15:30   0.28   75.3    19    6.3   284    11.5   859.1    0.00 
 246   15:40   0.24   75.2    20    9.2   289    15.4   859.0    0.00 
 246   15:50   0.24   75.4    20    9.8   294    15.3   859.0    0.00 
 246   16:00   0.21   75.1    20    7.1   269    12.1   859.0    0.00 
 246   16:10   0.16   74.5    21   10.8   286    18.8   858.9    0.00 
 246   16:20   0.14   73.7    21   12.6   289    17.5   858.9    0.00 
 246   16:30   0.12   73.3    22   10.2   294    17.0   858.9    0.00 
 246   16:40   0.08   73.3    21    8.8   282    13.3   858.8    0.00 
 246   16:50   0.06   73.1    22    7.3   290     9.6   858.9    0.00 
 246   17:00   0.04   72.7    22    7.1   294    13.2   858.9    0.00 
 246   17:10   0.03   72.5    22    4.4   273     6.8   858.8    0.00 
 246   17:20   0.04   72.5    21    3.5   248     5.8   858.8    0.00 
 246   17:30   0.04   72.4    21    4.7   259    10.0   858.7    0.00 
 246   17:40   0.03   72.2    21    8.4   273    17.9   858.7    0.00 
 246   17:50   0.03   72.1    21    4.6   263    10.2   858.6    0.00 
 246   18:00   0.02   71.8    21    5.5   275     9.6   858.4    0.00 
 246   18:10   0.02   71.5    21    5.7   266    10.2   858.4    0.00 
 246   18:20   0.01   70.3    23    7.8   312    10.8   858.4    0.00 
 246   18:30   0.00   69.2    23    8.7   313    11.8   858.4    0.00 
 246   18:40   0.00   68.1    25    8.0   313    11.0   858.5    0.00 
 246   18:50   0.00   67.7    26    7.7   331    10.0   858.6    0.00 
 246   19:00   0.00   67.0    26    7.0   338     9.7   858.6    0.00 
 246   19:10   0.00   66.7    26    7.4   337     9.8   858.5    0.00 
 246   19:20   0.00   65.2    27    6.5   326     8.7   858.4    0.00 
 246   19:30   0.00   65.0    28    7.3   306     9.4   858.5    0.00 
 246   19:40   0.00   65.6    28    7.6   308    10.0   858.6    0.00 
 246   19:50   0.00   66.2    28   12.6   324    17.4   858.9    0.00 
 246   20:00   0.00   65.8    29   16.7   318    22.7   859.1    0.00 
 246   20:10   0.00   65.0    31   16.7   319    22.4   859.3    0.00 
 246   20:20   0.00   63.9    33   10.8    12    19.6   859.8    0.00 
 246   20:30   0.00   63.8    35   11.0    22    23.3   859.8    0.00 
 246   20:40   0.00   63.6    35    9.6     9    15.4   860.0    0.00 
 246   20:50   0.00   63.5    36   10.3     6    14.6   860.1    0.00 
 246   21:00   0.00   63.0    36   12.4    12    17.2   860.1    0.00 
 246   21:10   0.00   62.2    38   13.6    19    19.1   860.2    0.00 
 246   21:20   0.00   61.7    40   13.3    20    19.7   860.2    0.00 
 246   21:30   0.00   61.3    40   12.2    20    19.1   860.1    0.00 
 246   21:40   0.00   60.8    41   11.0    22    15.3   860.2    0.00 
 246   21:50   0.00   60.4    41   12.4    19    17.9   860.0    0.00 
 246   22:00   0.00   60.0    42   10.7    15    14.5   860.0    0.00 
 246   22:10   0.00   59.1    43    6.9     8    12.0   860.1    0.00 
 246   22:20   0.00   59.2    43    8.0     0    11.8   860.1    0.00 
 246   22:30   0.00   58.9    43    8.9     2    13.5   860.2    0.00 
 246   22:40   0.00   58.7    44   10.5     7    15.9   860.2    0.00 
 246   22:50   0.00   58.7    44   12.3    14    17.9   860.2    0.00 
 246   23:00   0.00   58.4    44    9.9    11    16.0   860.3    0.00 
 246   23:10   0.00   58.3    44   10.5     7    14.2   860.4    0.00 
 246   23:20   0.00   58.3    45   10.5    13    15.0   860.5    0.00 
 246   23:30   0.00   58.2    45   10.6    18    14.9   860.6    0.00 
 246   23:40   0.00   58.0    45   11.1    14    15.0   860.5    0.00 
 246   23:50   0.00   57.5    46   10.4     6    14.2   860.5    0.00 
 247    0:00   0.00   56.9    47    8.3     2    12.1   860.5    0.00 
 247    0:10   0.00   56.4    47    7.7   355    10.9   860.5    0.00 
 247    0:20   0.00   55.5    50    6.8   340     9.1   860.3    0.00 
 247    0:30   0.00   55.6    50    7.5   344    10.6   860.3    0.00 
 247    0:40   0.00   56.0    50    8.1   351    11.1   860.2    0.00 
 247    0:50   0.00   55.9    50    7.7   345    10.7   860.2    0.00 
 247    1:00   0.00   56.0    49    7.9   341    10.3   860.1    0.00 
 247    1:10   0.00   56.2    49    8.4   342    11.8   860.0    0.00 
 247    1:20   0.00   56.5    49    9.1   343    13.1   860.0    0.00 
 247    1:30   0.00   56.3    50    9.0   348    12.2   859.9    0.00 
 247    1:40   0.00   55.8    50    7.9   344    12.5   859.9    0.00 

Return to Paradise Valley graphs page.


Western Regional Climate Center,wrcc@dri.edu